This is the latest recevied weather packets stored in our database for station/object DB0NLS-15. If no packets are shown the sender has not sent any weather packets the latest 10 day(s).
| Time | Temp. | Humidity | Pressure | Rain* | Wind** | Luminosity | Snow |
|---|---|---|---|---|---|---|---|
| 1777508164 | -1.67° C | 72% | 1019.9 hPa | 0 mm | - | - | - |
| 1777507561 | -1.11° C | 72% | 1019.8 hPa | 0 mm | - | - | - |
| 1777506959 | -1.11° C | 71% | 1019.8 hPa | 0 mm | - | - | - |
| 1777505754 | -1.11° C | 71% | 1019.8 hPa | 0 mm | - | - | - |
| 1777500932 | 0° C | 68% | 1019.8 hPa | 0 mm | - | - | - |
| 1777499124 | 1.11° C | 66% | 1019.7 hPa | 0 mm | - | - | - |
| 1777491350 | 6.11° C | 50% | 1018.8 hPa | 0 mm | - | - | - |
| 1777490747 | 6.67° C | 48% | 1018.8 hPa | 0 mm | - | - | - |
| 1777490145 | 7.78° C | 41% | 1018.8 hPa | 0 mm | - | - | - |
| 1777485927 | 10° C | 35% | 1018.2 hPa | 0 mm | - | - | - |
| 1777484119 | 11.11° C | 34% | 1017.9 hPa | 0 mm | - | - | - |
| 1777483516 | 11.11° C | 33% | 1017.7 hPa | 0 mm | - | - | - |
| 1777478122 | 12.22° C | 31% | 1017.2 hPa | 0 mm | - | - | - |
| 1777476917 | 12.22° C | 31% | 1017.2 hPa | 0 mm | - | - | - |
| 1777472759 | 12.78° C | 30% | 1017.2 hPa | 0 mm | - | - | - |
| 1777470951 | 12.78° C | 30% | 1017.2 hPa | 0 mm | - | - | - |
| 1777469142 | 12.22° C | 30% | 1017.1 hPa | 0 mm | - | - | - |
| 1777468540 | 12.22° C | 30% | 1017.1 hPa | 0 mm | - | - | - |
| 1777467937 | 12.22° C | 30% | 1017.1 hPa | 0 mm | - | - | - |
| 1777466128 | 11.67° C | 31% | 1017.2 hPa | 0 mm | - | - | - |
| 1777464320 | 11.67° C | 31% | 1017.2 hPa | 0 mm | - | - | - |
| 1777463115 | 11.11° C | 30% | 1017.3 hPa | 0 mm | - | - | - |
| 1777462572 | 11.67° C | 30% | 1017.4 hPa | 0 mm | - | - | - |
| 1777461970 | 11.11° C | 31% | 1017.4 hPa | 0 mm | - | - | - |
| 1777461367 | 11.11° C | 31% | 1017.5 hPa | 0 mm | - | - | - |
* Rain latest hour (hover to see other rain measurements)
** Current wind speed in m/s (hover to see current wind gust speed)